Time;durP1;ratioP1;P1;durP2;ratioP2;P2;SDS_P1;SDS_P2;PMS_P1;PMS_P2;Temp;Humidity;BMP_temperature;BMP_pressure;BME280_temperature;BME280_humidity;BME280_pressure;Samples;Min_cycle;Max_cycle;Signal;HPM_P1;HPM_P2
2021/05/11 00:05:29;;;;;;;14.40;8.20;;;;;;;15.87;50.23;98819.45;260842;1093;111269;-74
2021/05/11 00:10:31;;;;;;;19.00;8.30;;;;;;;15.78;50.35;98821.93;260413;1096;117305;-71
2021/05/11 00:15:34;;;;;;;20.80;8.70;;;;;;;15.73;50.41;98812.60;260885;1096;117171;-72
2021/05/11 00:25:28;;;;;;;19.60;9.50;;;;;;;15.55;50.72;98823.88;261236;1094;111327;-69
2021/05/11 00:30:31;;;;;;;19.50;9.10;;;;;;;15.48;50.67;98813.81;260943;1096;117317;-70
2021/05/11 00:35:33;;;;;;;19.10;9.30;;;;;;;15.41;51.15;98818.86;260931;1094;117222;-70
2021/05/11 00:45:28;;;;;;;18.10;9.40;;;;;;;15.30;51.18;98813.56;257926;1093;111236;-73
2021/05/11 00:50:31;;;;;;;16.30;8.90;;;;;;;15.23;51.39;98815.92;260894;1096;117223;-73
2021/05/11 00:55:34;;;;;;;18.20;8.80;;;;;;;15.17;51.73;98811.07;260747;1096;117234;-77
2021/05/11 01:05:47;;;;;;;16.60;8.80;;;;;;;15.02;51.92;98804.34;259468;1097;128737;-70
2021/05/11 01:10:51;;;;;;;15.80;8.40;;;;;;;14.93;51.86;98799.74;260881;1099;117185;-73
2021/05/11 01:15:55;;;;;;;20.10;9.00;;;;;;;14.86;51.91;98799.41;260908;1097;117350;-74
2021/05/11 01:25:30;;;;;;;16.60;8.50;;;;;;;14.76;52.58;98785.92;256308;1093;111900;-73
2021/05/11 02:18:01;;;;;;;13.80;7.50;;;;;;;14.09;53.30;98767.33;260915;1096;117657;-73
2021/05/11 02:25:28;;;;;;;16.90;7.60;;;;;;;13.99;53.82;98763.69;262849;1091;111631;-69
2021/05/11 02:30:31;;;;;;;19.70;8.70;;;;;;;13.94;53.61;98764.92;260907;1096;117464;-69
2021/05/11 02:35:34;;;;;;;13.20;8.10;;;;;;;13.88;53.41;98768.08;261016;1095;117259;-69
2021/05/11 02:45:28;;;;;;;18.30;8.00;;;;;;;13.79;53.64;98758.13;262787;1093;111573;-68
2021/05/11 02:50:32;;;;;;;14.70;7.60;;;;;;;13.76;53.51;98761.05;260904;1096;117434;-72
2021/05/11 02:55:35;;;;;;;19.20;8.00;;;;;;;13.74;54.27;98757.63;260957;1096;117381;-69
2021/05/11 03:05:34;;;;;;;17.30;7.60;;;;;;;13.70;54.05;98756.19;260979;1093;112331;-76
2021/05/11 03:10:38;;;;;;;16.30;7.80;;;;;;;13.67;54.84;98754.59;260953;1096;117306;-75
2021/05/11 03:15:41;;;;;;;17.20;8.20;;;;;;;13.65;54.95;98745.83;260916;1096;117228;-75
2021/05/11 03:25:28;;;;;;;19.60;8.70;;;;;;;13.60;54.75;98744.52;261581;1093;111055;-70
2021/05/11 03:30:31;;;;;;;18.10;8.40;;;;;;;13.57;54.76;98732.23;261131;1096;118110;-70
2021/05/11 03:35:33;;;;;;;15.40;7.50;;;;;;;13.54;54.72;98737.82;261171;1096;117221;-71
2021/05/11 03:45:36;;;;;;;15.00;7.10;;;;;;;13.56;55.04;98735.89;255632;1093;111721;-76
2021/05/11 03:50:39;;;;;;;12.50;6.30;;;;;;;13.61;55.39;98732.84;260915;1096;117451;-72
2021/05/11 03:55:52;;;;;;;12.70;6.40;;;;;;;13.65;55.04;98728.94;260842;1096;117141;-77
2021/05/11 04:05:28;;;;;;;11.00;5.80;;;;;;;13.80;55.82;98727.73;261292;1093;111521;-80
2021/05/11 04:25:28;;;;;;;10.80;5.30;;;;;;;14.32;55.45;98723.48;262103;1093;112101;-77
2021/05/11 04:30:31;;;;;;;15.20;5.40;;;;;;;14.46;55.30;98721.48;261132;1096;117715;-72
2021/05/11 04:35:35;;;;;;;10.50;5.30;;;;;;;14.59;54.88;98725.72;257526;1096;117341;-81
2021/05/11 04:45:34;;;;;;;9.00;5.00;;;;;;;14.82;55.05;98710.40;260536;1093;111497;-77
2021/05/11 04:50:38;;;;;;;13.90;5.80;;;;;;;14.94;54.90;98707.65;260993;1096;117234;-77
2021/05/11 04:55:41;;;;;;;10.60;5.40;;;;;;;15.04;54.68;98708.56;260928;1097;116814;-82
2021/05/11 05:05:31;;;;;;;11.10;5.50;;;;;;;15.24;54.88;98713.05;261811;1093;111136;-78
2021/05/11 05:10:39;;;;;;;7.20;4.70;;;;;;;15.37;54.59;98719.05;261199;1095;117906;-78
2021/05/11 05:15:53;;;;;;;9.40;5.20;;;;;;;15.55;54.54;98718.42;260819;1096;117705;-77
2021/05/11 05:25:30;;;;;;;12.20;5.30;;;;;;;15.89;54.44;98716.33;262231;1093;111161;-76
2021/05/11 05:30:37;;;;;;;10.00;5.50;;;;;;;16.07;54.29;98713.85;261232;1096;117296;-79
2021/05/11 05:35:46;;;;;;;9.00;5.40;;;;;;;16.23;53.83;98706.09;261074;1096;118409;-78
2021/05/11 05:45:28;;;;;;;10.10;5.60;;;;;;;16.56;53.74;98706.69;257113;1093;111065;-72
2021/05/11 05:50:32;;;;;;;15.90;5.80;;;;;;;16.69;53.65;98706.41;261194;1096;117211;-73
2021/05/11 05:55:35;;;;;;;13.20;5.10;;;;;;;16.84;53.55;98704.16;258048;1096;117244;-77
2021/05/11 06:05:31;;;;;;;10.80;5.60;;;;;;;17.06;53.24;98692.26;261572;1093;111184;-74
2021/05/11 06:10:34;;;;;;;7.70;4.30;;;;;;;17.18;53.34;98694.61;260981;1096;117692;-74
2021/05/11 06:25:28;;;;;;;9.60;3.90;;;;;;;17.49;53.24;98678.23;259997;1093;110678;-74
2021/05/11 06:30:31;;;;;;;9.00;3.70;;;;;;;17.60;53.21;98667.30;261525;1096;117107;-71
2021/05/11 06:35:35;;;;;;;10.00;3.60;;;;;;;17.74;52.75;98668.64;261172;1096;116911;-72
2021/05/11 06:56:32;;;;;;;11.10;5.20;;;;;;;18.29;51.34;98662.38;258729;1096;117643;-76
2021/05/11 07:05:53;;;;;;;12.30;4.40;;;;;;;18.56;51.44;98656.05;260240;1096;128746;-74
2021/05/11 07:10:59;;;;;;;12.20;4.60;;;;;;;18.68;51.08;98652.97;260918;1097;117189;-73
2021/05/11 07:16:27;;;;;;;11.20;4.50;;;;;;;18.84;50.96;98643.33;259943;1098;117729;-77
2021/05/11 07:25:33;;;;;;;19.40;11.10;;;;;;;19.23;51.08;98635.67;262216;1093;111448;-70
2021/05/11 07:30:39;;;;;;;18.60;9.80;;;;;;;19.55;51.23;98632.27;260940;1096;117316;-73
2021/05/11 07:35:52;;;;;;;19.10;8.40;;;;;;;19.82;50.81;98628.52;259913;1096;117534;-75
2021/05/11 07:45:37;;;;;;;13.60;6.70;;;;;;;20.13;49.77;98627.08;259977;1095;111044;-71
2021/05/11 08:15:41;;;;;;;65.30;38.30;;;;;;;20.75;48.92;98613.95;260920;1094;117826;-65
2021/05/11 08:30:50;;;;;;;14.00;6.20;;;;;;;20.98;48.53;98609.53;259784;1096;117703;-65
2021/05/11 08:35:58;;;;;;;24.60;10.80;;;;;;;21.10;48.41;98601.07;260880;1096;117377;-66
2021/05/11 08:45:31;;;;;;;13.10;4.80;;;;;;;21.32;48.31;98602.17;261821;1093;111680;-67
2021/05/11 08:50:37;;;;;;;12.30;4.60;;;;;;;21.46;47.86;98596.05;260891;1096;117362;-66
2021/05/11 09:25:48;;;;;;;12.80;4.50;;;;;;;22.50;46.38;98585.80;262822;1093;111302;-65
2021/05/11 10:31:33;;;;;;;6.40;2.20;;;;;;;24.88;41.69;98519.94;258209;1096;117717;-63
2021/05/11 10:51:05;;;;;;;7.10;2.10;;;;;;;25.73;40.51;98499.60;259290;1096;117268;-65
2021/05/11 10:56:18;;;;;;;8.40;2.00;;;;;;;25.92;40.41;98500.73;260421;1096;117354;-61
2021/05/11 11:05:39;;;;;;;5.50;2.10;;;;;;;26.26;39.37;98489.88;262482;1093;110577;-59
2021/05/11 11:10:42;;;;;;;3.10;1.80;;;;;;;26.41;38.65;98490.48;262563;1095;117223;-61
2021/05/11 11:15:47;;;;;;;5.50;2.20;;;;;;;26.54;38.77;98474.14;261583;1094;117249;-64
2021/05/11 11:25:28;;;;;;;4.60;1.90;;;;;;;26.82;38.06;98475.77;261782;1093;111943;-61
2021/05/11 11:30:32;;;;;;;5.80;1.90;;;;;;;26.97;37.90;98470.91;260555;1094;117562;-60
2021/05/11 11:35:35;;;;;;;4.80;2.00;;;;;;;27.10;37.94;98468.11;260862;1096;117198;-60
2021/05/11 11:45:30;;;;;;;5.00;1.90;;;;;;;27.33;37.41;98461.34;262927;1091;111173;-61
2021/05/11 11:50:38;;;;;;;10.40;2.90;;;;;;;27.44;37.08;98446.98;260071;1094;117197;-66
2021/05/11 12:05:47;;;;;;;7.90;2.10;;;;;;;27.79;36.04;98428.31;261955;1096;110824;-61
2021/05/11 12:10:55;;;;;;;5.00;2.10;;;;;;;27.89;35.60;98427.83;260848;1096;116930;-61
2021/05/11 12:16:16;;;;;;;6.10;2.10;;;;;;;28.01;35.40;98426.03;256127;1096;117293;-64
2021/05/11 12:25:27;;;;;;;4.40;2.00;;;;;;;28.17;35.03;98410.13;262158;1093;111752;-60
2021/05/11 12:30:38;;;;;;;8.00;1.90;;;;;;;28.31;34.77;98408.95;260939;1096;117081;-62
2021/05/11 12:35:42;;;;;;;7.70;3.00;;;;;;;28.42;34.70;98400.02;260264;1096;118539;-62
2021/05/11 12:45:35;;;;;;;5.30;2.00;;;;;;;28.64;34.50;98396.87;261680;1093;111173;-60
2021/05/11 12:50:42;;;;;;;8.20;1.90;;;;;;;28.71;34.35;98387.50;260818;1094;117716;-59
2021/05/11 13:16:21;;;;;;;6.20;2.40;;;;;;;29.23;33.21;98359.69;260014;1096;117354;-62
2021/05/11 13:35:40;;;;;;;7.40;3.30;;;;;;;29.52;32.51;98324.25;260891;1095;116733;-61
2021/05/11 13:45:29;;;;;;;9.20;2.80;;;;;;;29.64;32.37;98314.19;259811;1093;111162;-61
2021/05/11 14:05:48;;;;;;;11.90;2.50;;;;;;;29.88;31.56;98288.44;261060;1096;128223;-61
2021/05/11 14:10:51;;;;;;;5.30;2.20;;;;;;;29.94;31.95;98292.15;260891;1096;117158;-61
2021/05/11 14:15:55;;;;;;;8.10;4.30;;;;;;;29.91;31.65;98287.13;260979;1096;117276;-62
2021/05/11 14:25:28;;;;;;;8.40;3.50;;;;;;;29.85;31.40;98266.13;261264;1096;112363;-62
2021/05/11 14:30:31;;;;;;;9.90;3.30;;;;;;;29.79;31.79;98254.22;260912;1094;118003;-62
2021/05/11 14:35:34;;;;;;;22.80;13.40;;;;;;;29.71;31.60;98251.81;260757;1096;116695;-62
2021/05/11 14:45:28;;;;;;;14.50;7.80;;;;;;;29.49;31.11;98240.58;261141;1093;111095;-64
2021/05/11 14:50:32;;;;;;;15.40;7.00;;;;;;;29.31;31.25;98241.48;258235;1096;120377;-63
2021/05/11 14:57:46;;;;;;;16.63;8.60;;;;;;;28.95;31.17;98235.06;263287;1092;101410;-65
2021/05/11 15:02:50;;;;;;;18.95;13.68;;;;;;;28.72;31.40;98226.75;262815;1103;114659;-63
2021/05/11 15:07:55;;;;;;;6.13;3.13;;;;;;;28.53;31.55;98224.06;263237;1098;114596;-63
2021/05/11 15:12:59;;;;;;;;;;;;;;;28.41;31.50;98222.33;263212;1104;114187;-63
2021/05/11 15:18:04;;;;;;;10.78;7.53;;;;;;;28.22;31.53;98221.47;263188;1098;101129;-63
2021/05/11 15:23:08;;;;;;;22.90;12.73;;;;;;;28.14;31.83;98211.67;263239;1103;114632;-64
2021/05/11 15:28:12;;;;;;;15.58;8.65;;;;;;;28.05;31.80;98213.86;263116;1099;115028;-63
2021/05/11 15:33:16;;;;;;;4.38;2.73;;;;;;;27.96;31.63;98217.98;262863;1103;114501;-63
2021/05/11 15:38:20;;;;;;;5.43;2.88;;;;;;;27.86;31.81;98200.43;263186;1098;116038;-63
2021/05/11 15:43:24;;;;;;;11.57;5.17;;;;;;;27.81;32.21;98201.09;262931;1103;114302;-63
2021/05/11 15:48:29;;;;;;;16.18;11.83;;;;;;;27.68;32.27;98201.19;263109;1099;114562;-63
2021/05/11 15:53:33;;;;;;;10.23;5.13;;;;;;;27.64;32.12;98183.58;263135;1101;115616;-63
2021/05/11 15:58:38;;;;;;;9.40;5.18;;;;;;;27.60;32.21;98191.39;263068;1098;114673;-63
2021/05/11 16:03:47;;;;;;;10.83;3.07;;;;;;;27.51;32.69;98179.06;263139;1104;114597;-64
2021/05/11 16:08:58;;;;;;;6.57;2.53;;;;;;;27.46;32.58;98178.92;262767;1104;114981;-63
2021/05/11 16:14:02;;;;;;;24.13;15.63;;;;;;;27.39;32.68;98175.42;263047;1104;114464;-63
2021/05/11 16:19:06;;;;;;;;;;;;;;;27.28;32.82;98174.27;263124;1097;116574;-64
2021/05/11 16:24:10;;;;;;;13.50;8.23;;;;;;;27.20;33.55;98169.89;263144;1103;101146;-65
2021/05/11 16:29:14;;;;;;;26.60;20.77;;;;;;;27.11;33.28;98168.48;263078;1099;114764;-65
2021/05/11 16:34:19;;;;;;;21.80;13.33;;;;;;;26.98;33.74;98172.16;263106;1101;114561;-64
2021/05/11 16:39:23;;;;;;;6.95;4.03;;;;;;;26.85;33.82;98162.16;263094;1098;115209;-65
2021/05/11 16:44:28;;;;;;;11.30;3.37;;;;;;;26.75;34.11;98158.25;263134;1102;114548;-64
2021/05/11 16:49:31;;;;;;;;;;;;;;;26.67;34.16;98173.00;263121;1100;115711;-65
2021/05/11 16:54:35;;;;;;;24.77;14.40;;;;;;;26.56;34.46;98166.36;263162;1104;102194;-64
2021/05/11 16:59:40;;;;;;;13.20;5.90;;;;;;;26.49;34.82;98165.53;263088;1103;114741;-64
2021/05/11 17:04:43;;;;;;;23.80;8.78;;;;;;;26.46;34.70;98170.56;263107;1101;114389;-64
2021/05/11 17:09:47;;;;;;;27.37;17.63;;;;;;;26.34;34.62;98170.42;263079;1099;114880;-67
2021/05/11 17:14:51;;;;;;;18.08;7.38;;;;;;;26.20;34.36;98172.38;263032;1103;115224;-68
2021/05/11 17:19:54;;;;;;;18.88;9.55;;;;;;;26.13;34.19;98171.58;263060;1099;116098;-67
2021/05/11 17:24:58;;;;;;;22.30;13.23;;;;;;;26.09;34.39;98181.25;263036;1102;114777;-68
2021/05/11 17:30:04;;;;;;;32.28;20.28;;;;;;;26.00;34.43;98177.91;263125;1099;115125;-68
2021/05/11 17:35:11;;;;;;;23.10;10.67;;;;;;;25.93;34.78;98177.10;263042;1102;115302;-67
2021/05/11 17:40:18;;;;;;;11.43;7.40;;;;;;;25.85;34.66;98178.19;263097;1099;114930;-67
2021/05/11 17:45:22;;;;;;;22.17;6.63;;;;;;;25.81;34.86;98181.53;263091;1102;114854;-67
2021/05/11 17:50:31;;;;;;;;;;;;;;;25.70;34.94;98172.09;263071;1104;114659;-69
2021/05/11 17:55:35;;;;;;;9.73;6.25;;;;;;;25.57;35.04;98180.30;263126;1101;102157;-68
2021/05/11 18:00:40;;;;;;;10.17;5.50;;;;;;;25.47;35.32;98178.00;263115;1099;115422;-68
2021/05/11 18:05:44;;;;;;;13.13;7.85;;;;;;;25.38;35.60;98180.13;262765;1101;115192;-68
2021/05/11 18:10:48;;;;;;;16.75;13.18;;;;;;;25.29;35.68;98185.99;263124;1099;115056;-68
2021/05/11 18:15:52;;;;;;;10.88;4.45;;;;;;;25.17;35.71;98196.66;262889;1102;114813;-68
2021/05/11 18:20:57;;;;;;;9.93;3.93;;;;;;;25.11;35.85;98198.36;262775;1100;115379;-67
2021/05/11 18:26:01;;;;;;;28.97;23.77;;;;;;;25.06;35.94;98195.38;263001;1102;114645;-67
2021/05/11 18:31:05;;;;;;;30.33;21.20;;;;;;;24.99;35.78;98199.98;263098;1099;115108;-67
2021/05/11 18:41:44;;;;;;;30.77;24.97;;;;;;;24.89;35.89;98207.72;262793;1101;114614;-67
2021/05/11 18:46:51;;;;;;;55.63;41.00;;;;;;;24.81;36.08;98203.31;263075;1103;115024;-68
2021/05/11 18:51:55;;;;;;;83.47;69.53;;;;;;;24.74;36.17;98219.63;263105;1099;115005;-68
2021/05/11 18:57:00;;;;;;;74.28;57.73;;;;;;;24.64;36.80;98210.20;263131;1104;115857;-69
2021/05/11 19:02:04;;;;;;;61.13;47.80;;;;;;;24.56;36.59;98213.95;262769;1099;114860;-68
2021/05/11 19:07:08;;;;;;;34.28;26.00;;;;;;;24.48;36.57;98220.39;263134;1101;114999;-67
2021/05/11 19:12:12;;;;;;;60.40;43.28;;;;;;;24.39;36.59;98213.45;262746;1100;115203;-67
2021/05/11 19:17:15;;;;;;;25.33;16.65;;;;;;;24.30;36.64;98215.48;263137;1104;114660;-66
2021/05/11 19:22:20;;;;;;;11.05;6.53;;;;;;;24.23;36.81;98213.80;263094;1100;114724;-67
2021/05/11 19:27:25;;;;;;;9.07;4.60;;;;;;;24.16;36.51;98219.20;263127;1104;114517;-67
2021/05/11 19:32:29;;;;;;;16.43;12.07;;;;;;;24.08;36.75;98227.51;263105;1104;114671;-66
2021/05/11 19:37:33;;;;;;;48.50;37.40;;;;;;;23.99;36.83;98228.73;263119;1104;115545;-66
2021/05/11 19:42:37;;;;;;;14.98;8.75;;;;;;;23.92;37.09;98233.30;263132;1099;114367;-66
2021/05/11 19:47:40;;;;;;;37.68;28.98;;;;;;;23.86;37.09;98232.21;263171;1099;114508;-65
2021/05/11 19:52:44;;;;;;;14.38;8.80;;;;;;;23.78;37.35;98232.38;263112;1099;115371;-65
2021/05/11 19:57:51;;;;;;;18.33;12.20;;;;;;;23.69;37.18;98239.84;263163;1103;114935;-66
2021/05/11 20:02:54;;;;;;;26.53;16.38;;;;;;;23.62;37.49;98238.92;263127;1099;115131;-64
2021/05/11 20:07:58;;;;;;;31.90;22.90;;;;;;;23.54;37.50;98236.37;262997;1104;115192;-65
2021/05/11 20:13:02;;;;;;;61.45;47.18;;;;;;;23.44;37.77;98242.14;263140;1100;114876;-65
2021/05/11 20:18:08;;;;;;;29.68;23.02;;;;;;;23.36;37.58;98250.41;263189;1104;115039;-65
2021/05/11 20:23:12;;;;;;;28.40;12.13;;;;;;;23.28;38.10;98253.28;263157;1101;114966;-66
2021/05/11 20:28:16;;;;;;;15.43;7.70;;;;;;;23.17;37.90;98249.22;263027;1102;114882;-68
2021/05/11 20:33:24;;;;;;;17.73;11.33;;;;;;;23.07;38.21;98241.41;263079;1100;114730;-67
2021/05/11 20:38:27;;;;;;;17.00;8.97;;;;;;;22.99;38.68;98252.38;263177;1103;114804;-68
2021/05/11 20:43:31;;;;;;;22.80;15.13;;;;;;;22.91;38.76;98247.89;263049;1100;114293;-67
2021/05/11 20:48:35;;;;;;;17.78;12.53;;;;;;;22.84;38.67;98251.58;263170;1103;115008;-66
2021/05/11 20:53:38;;;;;;;12.53;5.95;;;;;;;22.77;38.93;98247.95;262345;1100;114967;-67
2021/05/11 20:58:43;;;;;;;9.98;4.93;;;;;;;22.63;39.09;98252.39;262733;1104;114587;-66
2021/05/11 21:03:47;;;;;;;12.60;4.50;;;;;;;22.50;39.08;98253.08;263143;1099;114765;-67
2021/05/11 21:08:51;;;;;;;9.13;4.40;;;;;;;22.35;39.23;98246.83;263186;1103;114826;-67
2021/05/11 21:13:55;;;;;;;7.93;4.10;;;;;;;22.22;39.45;98252.95;263109;1104;114746;-66
2021/05/11 21:18:59;;;;;;;8.83;4.33;;;;;;;22.12;39.86;98253.20;263183;1101;115484;-66
2021/05/11 21:24:03;;;;;;;11.10;4.20;;;;;;;21.99;39.66;98247.59;263152;1100;116671;-67
2021/05/11 21:29:07;;;;;;;8.48;4.15;;;;;;;21.87;39.86;98255.33;262995;1102;114898;-65
2021/05/11 21:34:12;;;;;;;11.70;4.53;;;;;;;21.75;39.91;98248.72;261902;1099;114759;-66
2021/05/11 21:39:16;;;;;;;10.80;3.85;;;;;;;21.66;40.03;98241.70;263251;1104;114783;-66
2021/05/11 21:44:21;;;;;;;8.67;4.03;;;;;;;21.56;40.26;98241.95;262970;1099;114502;-66
2021/05/11 21:49:26;;;;;;;8.93;4.20;;;;;;;21.50;40.44;98248.11;262341;1101;114369;-65
2021/05/11 21:54:30;;;;;;;10.98;3.90;;;;;;;21.42;40.86;98242.78;263189;1099;114288;-66
2021/05/11 21:59:34;;;;;;;10.38;4.50;;;;;;;21.33;40.98;98236.59;263161;1102;114595;-66
2021/05/11 22:04:38;;;;;;;9.18;4.00;;;;;;;21.26;41.07;98230.20;262993;1100;114669;-65
2021/05/11 22:09:48;;;;;;;16.65;4.35;;;;;;;21.18;41.04;98230.28;262388;1104;114346;-65
2021/05/11 22:14:55;;;;;;;9.85;4.85;;;;;;;21.08;41.36;98235.11;262979;1099;114597;-66
2021/05/11 22:20:00;;;;;;;6.10;4.03;;;;;;;20.98;41.49;98232.64;262544;1104;114462;-66
2021/05/11 22:25:07;;;;;;;13.10;4.17;;;;;;;20.90;41.63;98224.61;262803;1099;114420;-65
2021/05/11 22:30:14;;;;;;;10.45;5.35;;;;;;;20.77;41.89;98220.63;263048;1104;114616;-66
2021/05/11 22:35:22;;;;;;;9.58;4.40;;;;;;;20.65;42.08;98229.33;262584;1099;114692;-65
2021/05/11 22:40:28;;;;;;;10.23;4.10;;;;;;;20.55;42.32;98227.72;263268;1101;115205;-65
2021/05/11 22:45:33;;;;;;;10.43;4.50;;;;;;;20.47;42.47;98227.72;262878;1104;114687;-67
2021/05/11 22:50:46;;;;;;;12.33;4.73;;;;;;;20.41;42.65;98227.58;263031;1103;114458;-68
2021/05/11 22:55:56;;;;;;;10.05;5.18;;;;;;;20.32;42.91;98232.21;262904;1099;114650;-68
2021/05/11 23:01:00;;;;;;;6.45;4.30;;;;;;;20.24;43.18;98224.96;262782;1102;114476;-67
2021/05/11 23:06:05;;;;;;;8.65;4.98;;;;;;;20.18;43.12;98231.09;261926;1104;114517;-67
2021/05/11 23:11:09;;;;;;;11.73;4.27;;;;;;;20.10;43.63;98228.41;262165;1104;114458;-67
2021/05/11 23:16:15;;;;;;;8.10;4.30;;;;;;;20.03;43.70;98222.03;262993;1099;115361;-67
2021/05/11 23:21:20;;;;;;;7.73;4.57;;;;;;;19.96;43.59;98216.48;262437;1104;114232;-68
2021/05/11 23:26:24;;;;;;;9.90;4.75;;;;;;;19.89;44.02;98220.07;261020;1098;114579;-66
2021/05/11 23:31:29;;;;;;;7.85;4.25;;;;;;;19.80;44.31;98211.14;263059;1101;114581;-66
2021/05/11 23:36:36;;;;;;;7.20;4.13;;;;;;;19.70;44.35;98211.38;261959;1101;114429;-66
2021/05/11 23:41:42;;;;;;;9.67;4.60;;;;;;;19.60;43.91;98206.13;261816;1099;114783;-66
2021/05/11 23:46:46;;;;;;;10.23;4.80;;;;;;;19.51;44.14;98200.92;262577;1100;114563;-66
2021/05/11 23:51:51;;;;;;;6.08;4.33;;;;;;;19.41;44.76;98193.02;261907;1100;115012;-66
2021/05/11 23:56:55;;;;;;;6.45;4.13;;;;;;;19.33;44.86;98203.84;262691;1099;114567;-67
